createdAt,value
2019-06-01T11:11:14.847Z,5.47
2019-06-01T11:13:45.606Z,4.10
2019-06-01T11:16:20.175Z,4.65
2019-06-01T11:18:48.600Z,4.43
2019-06-01T11:21:18.633Z,5.12
2019-06-01T11:23:47.059Z,4.42
2019-06-01T11:26:15.464Z,5.10
2019-06-01T11:28:46.373Z,4.87
2019-06-01T11:31:17.317Z,4.75
2019-06-01T11:33:45.712Z,3.80
2019-06-01T11:36:14.139Z,4.03
2019-06-01T11:38:46.028Z,4.10
2019-06-01T11:41:18.303Z,4.80
2019-06-01T11:43:46.130Z,3.45
2019-06-01T11:46:14.642Z,3.90
2019-06-01T11:48:43.521Z,4.35
2019-06-01T11:51:15.417Z,4.50
2019-06-01T11:53:43.821Z,4.15
2019-06-01T11:56:14.437Z,4.08
2019-06-01T11:58:43.402Z,3.37
2019-06-01T12:01:12.901Z,3.45
2019-06-01T12:03:43.972Z,3.53
2019-06-01T12:06:12.446Z,3.87
2019-06-01T12:08:49.070Z,3.37
2019-06-01T12:11:17.487Z,3.45
2019-06-01T12:13:50.060Z,3.45
2019-06-01T12:16:18.498Z,3.08
2019-06-01T12:18:48.276Z,3.47
2019-06-01T12:21:16.703Z,3.47
2019-06-01T12:23:47.698Z,3.08
2019-06-01T12:26:16.254Z,3.40
2019-06-01T12:28:49.583Z,3.42
2019-06-01T12:31:19.071Z,3.37
2019-06-01T12:33:48.813Z,3.53
2019-06-01T12:36:24.684Z,4.15
2019-06-01T12:38:57.865Z,3.45
2019-06-01T12:41:26.361Z,3.30
2019-06-01T12:44:18.801Z,3.02
2019-06-01T12:49:18.575Z,3.45
2019-06-01T12:51:48.970Z,3.42
2019-06-01T12:54:17.543Z,3.42
2019-06-01T12:56:47.827Z,3.70
2019-06-01T12:59:16.098Z,2.72
2019-06-01T13:01:45.154Z,3.12
2019-06-01T13:04:13.656Z,2.67
2019-06-01T13:06:43.165Z,2.75
2019-06-01T13:09:14.306Z,3.02
2019-06-01T13:11:43.242Z,3.42
2019-06-01T13:14:15.125Z,2.10
2019-06-01T13:16:55.923Z,2.80
2019-06-01T13:19:16.326Z,2.60
2019-06-01T13:21:47.564Z,3.22
2019-06-01T13:24:15.928Z,3.03
2019-06-01T13:26:45.623Z,2.98
2019-06-01T13:29:15.274Z,2.83
2019-06-01T13:31:44.407Z,3.83
2019-06-01T13:34:14.113Z,2.95
2019-06-01T13:36:42.594Z,2.65
2019-06-01T13:39:13.686Z,3.35
2019-06-01T13:41:43.102Z,3.17
2019-06-01T13:44:18.205Z,3.33
2019-06-01T13:46:52.071Z,2.33
2019-06-01T13:49:20.453Z,2.05
2019-06-01T13:51:54.552Z,2.48
2019-06-01T13:54:23.225Z,3.00
2019-06-01T13:56:55.436Z,2.10
2019-06-01T13:59:23.871Z,2.75
2019-06-01T14:01:56.299Z,2.92
2019-06-01T14:04:24.732Z,5.10
2019-06-01T14:06:53.231Z,5.37
2019-06-01T14:09:25.439Z,5.85
2019-06-01T14:11:53.845Z,8.63
2019-06-01T14:14:22.252Z,6.83
2019-06-01T14:16:55.804Z,5.92
2019-06-01T14:19:25.329Z,5.00
2019-06-01T14:21:55.973Z,7.50
2019-06-01T14:24:31.460Z,8.55
2019-06-01T14:27:03.756Z,8.27
2019-06-01T14:29:32.177Z,6.17
2019-06-01T14:32:06.917Z,7.00
2019-06-01T14:34:39.323Z,6.70
2019-06-01T14:37:06.795Z,7.67
2019-06-01T14:39:35.188Z,7.10
2019-06-01T14:42:04.175Z,7.50
2019-06-01T14:44:32.589Z,10.08
2019-06-01T14:47:05.427Z,9.27
2019-06-01T14:49:31.140Z,10.48
2019-06-01T14:52:07.486Z,9.17
2019-06-01T14:54:35.915Z,10.53
2019-06-01T14:57:05.664Z,9.90
2019-06-01T14:59:36.673Z,10.60
2019-06-01T15:02:11.392Z,10.83
2019-06-01T15:04:39.804Z,11.50
2019-06-01T15:07:12.030Z,11.75
2019-06-01T15:09:44.924Z,9.38
2019-06-01T15:12:18.873Z,10.58
2019-06-01T15:14:48.543Z,11.85
2019-06-01T15:17:24.574Z,11.55
2019-06-01T15:19:54.184Z,9.65
2019-06-01T15:22:22.580Z,9.98
2019-06-01T15:24:56.468Z,10.25
2019-06-01T15:27:24.875Z,9.70
2019-06-01T15:29:53.310Z,9.73
2019-06-01T15:32:21.912Z,9.55
2019-06-01T15:34:50.430Z,8.90
2019-06-01T15:37:19.043Z,9.63
2019-06-01T15:39:47.451Z,8.45
2019-06-01T15:42:17.861Z,9.15
2019-06-01T15:44:47.318Z,9.68
2019-06-01T15:47:18.000Z,7.53
2019-06-01T15:49:47.482Z,8.50
2019-06-01T15:52:16.961Z,8.80
2019-06-01T15:54:47.513Z,8.05
2019-06-01T15:57:15.955Z,9.80
2019-06-01T15:59:47.095Z,7.87
2019-06-01T16:02:19.348Z,7.77
2019-06-01T16:04:47.793Z,7.65
2019-06-01T16:07:20.026Z,7.62
2019-06-01T16:12:17.001Z,6.78
2019-06-01T16:14:45.420Z,9.13
2019-06-01T16:17:19.047Z,6.17
2019-06-01T16:19:49.801Z,7.22
2019-06-01T16:22:18.206Z,7.03
2019-06-01T16:24:47.684Z,7.70
2019-06-01T16:27:19.578Z,7.60
2019-06-01T16:29:56.847Z,5.97
2019-06-01T16:32:26.321Z,7.53
2019-06-01T16:35:01.302Z,7.12
2019-06-01T16:37:44.409Z,6.70
2019-06-01T16:40:13.632Z,6.17
2019-06-01T16:42:42.104Z,6.33
2019-06-01T16:45:15.072Z,5.22
2019-06-01T16:47:43.801Z,5.45
2019-06-01T16:50:12.707Z,5.65
2019-06-01T16:52:43.325Z,6.28
2019-06-01T16:55:12.599Z,5.35
2019-06-01T16:57:41.101Z,6.12
2019-06-01T17:00:15.045Z,6.17
2019-06-01T17:02:45.450Z,6.17
2019-06-01T17:05:18.429Z,4.83
2019-06-01T17:07:52.026Z,5.40
2019-06-01T17:10:26.053Z,5.58
2019-06-01T17:12:50.950Z,5.47
2019-06-01T17:15:22.438Z,5.00
2019-06-01T17:17:56.878Z,4.15
2019-06-01T17:20:48.729Z,5.10
2019-06-01T17:23:27.941Z,5.05
2019-06-01T17:25:48.406Z,4.45
2019-06-01T17:28:19.245Z,3.98
2019-06-01T17:30:47.015Z,4.00
2019-06-01T17:33:15.412Z,4.17
2019-06-01T17:35:43.835Z,3.80
2019-06-01T17:38:19.509Z,3.52
2019-06-01T17:40:46.057Z,3.90
2019-06-01T17:43:19.485Z,4.22
2019-06-01T17:45:52.619Z,3.58
2019-06-01T17:48:27.787Z,3.52
2019-06-01T17:50:58.728Z,3.60
2019-06-01T17:53:27.164Z,3.83
2019-06-01T17:55:55.575Z,4.22
2019-06-01T17:58:29.142Z,3.87
2019-06-01T18:00:57.553Z,3.67
2019-06-01T18:03:25.951Z,3.22
2019-06-01T18:05:57.229Z,3.52
2019-06-01T18:08:28.272Z,4.37
2019-06-01T18:10:56.793Z,3.95
2019-06-01T18:13:29.243Z,3.20
2019-06-01T18:16:00.404Z,3.35
2019-06-01T18:18:32.453Z,3.30
2019-06-01T18:21:04.174Z,2.95
2019-06-01T18:23:34.867Z,2.80
2019-06-01T18:26:07.095Z,2.98
2019-06-01T18:28:39.105Z,3.00
2019-06-01T18:31:10.729Z,2.70
2019-06-01T18:33:53.459Z,2.62
2019-06-01T18:36:21.402Z,2.25
2019-06-01T18:39:03.359Z,2.58
2019-06-01T18:41:38.299Z,2.40
2019-06-01T18:44:09.719Z,2.42
2019-06-01T18:46:40.792Z,2.20
2019-06-01T18:49:10.246Z,3.15
2019-06-01T18:51:45.294Z,2.42
2019-06-01T18:54:15.049Z,1.82
2019-06-01T18:56:43.723Z,2.12
2019-06-01T18:59:14.596Z,2.35
2019-06-01T19:01:43.961Z,2.12
2019-06-01T19:04:23.751Z,1.82
2019-06-01T19:07:07.152Z,2.17
2019-06-01T19:12:43.152Z,2.10
2019-06-01T19:15:27.544Z,2.35
2019-06-01T19:17:53.116Z,1.80
2019-06-01T19:20:24.343Z,2.00
2019-06-01T19:22:55.269Z,1.90
2019-06-01T19:25:39.774Z,2.33
2019-06-01T19:28:17.526Z,2.70
2019-06-01T19:30:54.363Z,2.12
2019-06-01T19:33:40.616Z,2.55
2019-06-01T19:36:09.463Z,2.45
2019-06-01T19:38:42.688Z,2.47
2019-06-01T19:41:11.361Z,3.02
2019-06-01T19:43:39.793Z,2.80
2019-06-01T19:46:11.719Z,2.22
2019-06-01T19:48:42.072Z,2.98
2019-06-01T19:51:10.724Z,2.27
2019-06-01T19:53:43.257Z,2.80
2019-06-01T19:56:12.824Z,2.40
2019-06-01T19:59:05.379Z,2.80
2019-06-01T20:01:40.017Z,2.90
2019-06-01T20:04:10.592Z,2.70
2019-06-01T20:06:51.821Z,2.40
2019-06-01T20:09:28.471Z,2.60
2019-06-01T20:12:01.791Z,2.80
2019-06-01T20:14:32.224Z,3.35
2019-06-01T20:17:05.866Z,3.00
2019-06-01T20:19:40.327Z,3.12
2019-06-01T20:22:08.769Z,3.77
2019-06-01T20:24:38.284Z,4.05
2019-06-01T20:27:06.927Z,3.90
2019-06-01T20:29:35.319Z,3.47
2019-06-01T20:32:05.061Z,3.47
2019-06-01T20:34:33.480Z,3.80
2019-06-01T20:37:04.253Z,4.20
2019-06-01T20:39:39.430Z,3.92
2019-06-01T20:42:38.121Z,3.80
2019-06-01T20:44:51.411Z,3.10
2019-06-01T20:47:24.423Z,3.35
2019-06-01T20:49:57.854Z,3.40
2019-06-01T20:52:33.362Z,4.00
2019-06-01T20:55:06.348Z,3.67
2019-06-01T20:57:38.452Z,3.80
2019-06-01T21:00:10.885Z,3.42
2019-06-01T21:02:39.291Z,3.30
2019-06-01T21:05:13.840Z,3.98
2019-06-01T21:08:10.525Z,3.83
2019-06-01T21:10:37.677Z,4.28
2019-06-01T21:13:08.185Z,3.55
2019-06-01T21:15:48.696Z,3.20
2019-06-01T21:18:22.815Z,3.98
2019-06-01T21:20:51.264Z,3.75
2019-06-01T21:23:20.716Z,4.40
2019-06-01T21:25:58.462Z,3.40
2019-06-01T21:28:27.053Z,3.47
2019-06-01T21:31:02.425Z,4.37
2019-06-01T21:33:37.852Z,5.83
2019-06-01T21:36:06.444Z,8.88
2019-06-01T21:38:48.493Z,8.53
2019-06-01T21:41:21.558Z,8.20
2019-06-01T21:43:48.522Z,7.35
2019-06-01T21:46:38.424Z,6.83
2019-06-01T21:51:59.141Z,6.73
2019-06-01T21:54:37.053Z,6.42
2019-06-01T21:57:10.510Z,7.25
2019-06-01T21:59:39.427Z,6.72
2019-06-01T22:02:16.868Z,7.13
2019-06-01T22:05:03.388Z,6.53
2019-06-01T22:07:43.394Z,6.17
2019-06-01T22:10:15.384Z,7.10
2019-06-01T22:12:51.516Z,7.00
2019-06-01T22:15:25.843Z,8.98
2019-06-01T22:18:01.011Z,8.58
2019-06-01T22:20:32.319Z,10.65
2019-06-01T22:23:11.887Z,6.27
2019-06-01T22:25:44.572Z,6.30
2019-06-01T22:28:18.501Z,9.43
2019-06-01T22:30:45.888Z,11.18
2019-06-01T22:33:21.807Z,10.30
2019-06-01T22:35:53.419Z,11.28
2019-06-01T22:38:30.193Z,10.97
2019-06-01T22:41:03.034Z,10.63
2019-06-01T22:43:45.434Z,10.90
2019-06-01T22:46:13.284Z,9.55
2019-06-01T22:48:43.758Z,8.18
2019-06-01T22:51:13.356Z,7.20
2019-06-01T22:53:56.250Z,6.67
2019-06-01T22:56:31.984Z,7.45
2019-06-01T22:59:02.902Z,7.65
2019-06-01T23:01:35.977Z,7.55
2019-06-01T23:04:27.423Z,7.47
2019-06-01T23:06:59.924Z,4.80
2019-06-01T23:09:41.542Z,5.62
2019-06-01T23:12:13.708Z,8.20
2019-06-01T23:14:45.850Z,8.90
2019-06-01T23:20:13.235Z,5.60
2019-06-01T23:22:55.418Z,5.08
2019-06-01T23:25:24.480Z,5.78
2019-06-01T23:27:52.998Z,6.62
2019-06-01T23:30:32.643Z,6.92
2019-06-01T23:33:09.827Z,6.17
2019-06-01T23:35:39.211Z,6.62
2019-06-01T23:38:15.091Z,7.55
2019-06-01T23:40:44.497Z,7.87
2019-06-01T23:43:15.359Z,7.12
2019-06-01T23:45:43.092Z,7.33
2019-06-01T23:48:11.645Z,6.78
2019-06-01T23:50:44.333Z,7.12
2019-06-01T23:53:14.024Z,6.83
2019-06-01T23:55:47.082Z,7.08
2019-06-01T23:58:15.518Z,7.80
